Time;durP1;ratioP1;P1;durP2;ratioP2;P2;SDS_P1;SDS_P2;PMS_P1;PMS_P2;Temp;Humidity;BMP_temperature;BMP_pressure;BME280_temperature;BME280_humidity;BME280_pressure;Samples;Min_cycle;Max_cycle;Signal;HPM_P1;HPM_P2
2022/03/23 00:01:34;;;;;;;22.90;7.85;;;;;;;1.67;100.00;100987.94;5153955;27;20137;-64
2022/03/23 00:04:00;;;;;;;23.27;8.57;;;;;;;1.61;100.00;100976.31;5154434;27;20051;-64
2022/03/23 00:06:27;;;;;;;22.20;9.05;;;;;;;1.61;100.00;100996.03;5154337;27;20046;-64
2022/03/23 00:08:53;;;;;;;29.10;8.88;;;;;;;1.61;100.00;100995.22;5154051;27;20529;-64
2022/03/23 00:11:20;;;;;;;19.58;7.75;;;;;;;1.53;100.00;100993.78;5154466;27;20046;-64
2022/03/23 00:13:47;;;;;;;20.05;8.68;;;;;;;1.52;100.00;100997.59;5154560;27;20429;-64
2022/03/23 00:16:13;;;;;;;26.52;8.88;;;;;;;1.52;100.00;101010.28;5154557;27;20094;-64
2022/03/23 00:18:40;;;;;;;26.20;8.43;;;;;;;1.44;100.00;100998.09;5154341;27;20086;-64
2022/03/23 00:21:06;;;;;;;21.42;8.15;;;;;;;1.41;100.00;101006.69;5154716;27;20054;-64
2022/03/23 00:23:32;;;;;;;24.58;8.18;;;;;;;1.32;100.00;101009.06;5154193;27;20455;-64
2022/03/23 00:25:59;;;;;;;23.58;8.57;;;;;;;1.31;100.00;101012.03;5154359;27;20049;-64
2022/03/23 00:28:26;;;;;;;22.95;7.47;;;;;;;1.31;100.00;101022.84;5153793;27;20515;-64
2022/03/23 00:30:53;;;;;;;18.30;8.00;;;;;;;1.27;100.00;101025.25;5153888;27;20050;-64
2022/03/23 00:33:21;;;;;;;13.35;6.93;;;;;;;1.24;100.00;101033.06;5153858;27;20482;-64
2022/03/23 00:35:48;;;;;;;24.10;7.93;;;;;;;1.15;100.00;101038.09;5154230;27;20081;-64
2022/03/23 00:38:15;;;;;;;20.75;7.90;;;;;;;1.12;100.00;101046.72;5154585;27;20107;-64
2022/03/23 00:40:43;;;;;;;22.23;8.32;;;;;;;1.11;100.00;101053.19;5153861;27;20055;-64
2022/03/23 00:43:09;;;;;;;16.85;8.13;;;;;;;1.12;100.00;101063.72;5154504;27;20046;-64
2022/03/23 00:45:36;;;;;;;19.02;8.65;;;;;;;1.15;100.00;101060.50;5153942;27;20519;-64
2022/03/23 00:48:03;;;;;;;26.38;7.35;;;;;;;1.07;100.00;101060.19;5154122;27;20047;-64
2022/03/23 00:50:30;;;;;;;21.70;8.43;;;;;;;0.99;100.00;101060.63;5153080;27;20123;-64
2022/03/23 00:52:56;;;;;;;20.80;8.48;;;;;;;0.95;100.00;101071.13;5153855;27;20047;-64
2022/03/23 00:55:22;;;;;;;17.70;7.97;;;;;;;0.85;100.00;101071.81;5153376;27;20047;-65
2022/03/23 00:57:49;;;;;;;16.48;7.03;;;;;;;0.85;100.00;101087.22;5153494;27;20051;-64
2022/03/23 01:00:20;;;;;;;31.25;8.90;;;;;;;0.85;100.00;101093.44;5153039;27;20057;-64
2022/03/23 01:02:48;;;;;;;22.38;9.00;;;;;;;0.85;100.00;101095.31;5153557;27;20047;-64
2022/03/23 01:05:16;;;;;;;21.58;8.52;;;;;;;0.82;100.00;101098.50;5153536;27;20046;-64
2022/03/23 01:07:43;;;;;;;24.52;8.40;;;;;;;0.73;100.00;101100.84;5153596;27;20046;-64
2022/03/23 01:10:11;;;;;;;28.23;8.68;;;;;;;0.74;100.00;101104.38;5153345;27;20097;-64
2022/03/23 01:12:38;;;;;;;25.73;8.90;;;;;;;0.70;100.00;101101.38;5153211;27;20042;-64
2022/03/23 01:15:06;;;;;;;26.52;8.48;;;;;;;0.70;100.00;101110.28;5153463;27;20066;-64
2022/03/23 01:17:32;;;;;;;32.47;8.95;;;;;;;0.72;100.00;101110.00;5153154;27;20053;-64
2022/03/23 01:19:58;;;;;;;19.38;7.82;;;;;;;0.69;100.00;101115.91;5153317;27;20042;-64
2022/03/23 01:22:25;;;;;;;20.65;8.75;;;;;;;0.70;100.00;101115.69;5153161;27;20065;-64
2022/03/23 01:24:52;;;;;;;25.80;9.07;;;;;;;0.72;100.00;101115.41;5153145;27;20474;-64
2022/03/23 01:27:18;;;;;;;22.58;8.52;;;;;;;0.73;100.00;101111.63;5152989;27;20053;-64
2022/03/23 01:29:44;;;;;;;21.27;9.73;;;;;;;0.74;100.00;101107.88;5153029;27;20505;-64
2022/03/23 01:32:10;;;;;;;18.58;8.07;;;;;;;0.71;100.00;101111.09;5153354;27;20046;-64
2022/03/23 01:34:37;;;;;;;21.75;8.00;;;;;;;0.74;100.00;101107.88;5153318;27;20094;-64
2022/03/23 01:37:04;;;;;;;38.72;8.82;;;;;;;0.76;100.00;101105.72;5153282;27;20412;-64
2022/03/23 01:39:31;;;;;;;24.50;8.55;;;;;;;0.74;100.00;101107.06;5153472;27;20047;-64
2022/03/23 01:41:58;;;;;;;24.83;7.97;;;;;;;0.73;100.00;101100.03;5153490;27;20157;-64
2022/03/23 01:44:26;;;;;;;21.27;8.20;;;;;;;0.69;100.00;101102.41;5153100;27;20051;-64
2022/03/23 01:47:03;;;;;;;19.25;8.02;;;;;;;0.69;100.00;101097.00;5153107;27;20050;-64
2022/03/23 01:49:30;;;;;;;25.95;8.38;;;;;;;0.72;100.00;101098.41;5152602;27;20112;-64
2022/03/23 01:51:56;;;;;;;21.77;9.02;;;;;;;0.68;100.00;101096.19;5152540;27;20054;-64
2022/03/23 01:54:22;;;;;;;19.88;8.15;;;;;;;0.68;100.00;101090.00;5152699;27;20050;-64
2022/03/23 01:56:50;;;;;;;21.83;8.20;;;;;;;0.67;100.00;101091.88;5152532;27;20540;-64
2022/03/23 01:59:17;;;;;;;18.50;9.40;;;;;;;0.64;100.00;101080.78;5152584;27;20213;-64
2022/03/23 02:01:43;;;;;;;24.38;9.80;;;;;;;0.66;100.00;101084.00;5152207;27;20047;-64
2022/03/23 02:04:09;;;;;;;21.75;8.63;;;;;;;0.65;100.00;101087.78;5152852;27;20051;-64
2022/03/23 02:06:36;;;;;;;23.73;8.45;;;;;;;0.63;100.00;101079.13;5152480;27;20046;-64
2022/03/23 02:09:02;;;;;;;19.30;8.50;;;;;;;0.66;100.00;101089.41;5152297;27;20093;-64
2022/03/23 02:11:30;;;;;;;24.50;8.50;;;;;;;0.60;100.00;101090.41;5152349;27;20134;-64
2022/03/23 02:13:57;;;;;;;23.83;8.52;;;;;;;0.54;100.00;101081.47;5152704;27;20047;-64
2022/03/23 02:16:24;;;;;;;16.67;8.07;;;;;;;0.50;100.00;101080.34;5152279;27;20092;-63
2022/03/23 02:18:50;;;;;;;21.45;8.15;;;;;;;0.41;100.00;101077.25;5152342;27;20061;-64
2022/03/23 02:21:16;;;;;;;19.17;9.00;;;;;;;0.43;100.00;101094.00;5152414;27;20520;-64
2022/03/23 02:23:43;;;;;;;25.27;8.38;;;;;;;0.45;100.00;101082.97;5152090;27;20506;-64
2022/03/23 02:26:10;;;;;;;20.65;9.27;;;;;;;0.41;100.00;101093.44;5152080;27;20183;-64
2022/03/23 02:28:37;;;;;;;23.65;9.45;;;;;;;0.41;100.00;101088.03;5151949;27;20086;-64
2022/03/23 02:31:04;;;;;;;18.15;9.02;;;;;;;0.38;100.00;101093.13;5152331;27;20046;-64
2022/03/23 02:33:30;;;;;;;21.77;9.50;;;;;;;0.36;100.00;101090.66;5152117;27;20099;-65
2022/03/23 02:35:56;;;;;;;20.13;9.20;;;;;;;0.35;100.00;101083.63;5152333;27;20078;-64
2022/03/23 02:38:23;;;;;;;20.75;8.65;;;;;;;0.33;100.00;101093.03;5151778;27;20051;-64
2022/03/23 02:40:50;;;;;;;20.67;8.75;;;;;;;0.32;100.00;101089.53;5152134;27;20050;-64
2022/03/23 02:43:16;;;;;;;21.95;9.20;;;;;;;0.30;100.00;101085.44;5151845;27;20047;-64
2022/03/23 02:45:42;;;;;;;22.38;9.82;;;;;;;0.25;100.00;101080.81;5152030;27;20134;-64
2022/03/23 02:48:09;;;;;;;22.15;9.52;;;;;;;0.27;100.00;101086.78;5151802;27;20047;-64
2022/03/23 02:50:36;;;;;;;20.08;9.27;;;;;;;0.26;100.00;101087.00;5151680;27;20529;-64
2022/03/23 03:04:17;;;;;;;18.60;8.80;;;;;;;0.15;100.00;101077.97;5151672;27;20066;-64
2022/03/23 03:06:43;;;;;;;18.55;9.57;;;;;;;0.08;100.00;101071.94;5151729;27;20057;-64
2022/03/23 03:09:10;;;;;;;18.63;8.93;;;;;;;0.07;100.00;101070.28;5151402;27;20057;-64
2022/03/23 03:11:36;;;;;;;19.80;8.95;;;;;;;0.10;100.00;101072.50;5151542;27;20418;-64
2022/03/23 03:14:03;;;;;;;24.45;9.90;;;;;;;0.09;100.00;101073.56;5150984;27;20402;-64
2022/03/23 03:16:29;;;;;;;18.38;8.95;;;;;;;0.10;100.00;101076.03;5151254;27;20042;-64
2022/03/23 03:18:56;;;;;;;19.92;9.70;;;;;;;0.02;100.00;101065.66;5151352;27;20079;-64
2022/03/23 03:21:22;;;;;;;23.90;9.52;;;;;;;0.02;100.00;101067.53;5151532;27;20046;-64
2022/03/23 03:23:48;;;;;;;22.55;9.73;;;;;;;0.03;100.00;101069.16;5151587;27;20054;-64
2022/03/23 03:26:17;;;;;;;22.63;9.63;;;;;;;-0.03;100.00;101069.09;5151352;27;20050;-64
2022/03/23 03:28:44;;;;;;;21.58;9.65;;;;;;;0.00;100.00;101065.09;5151272;27;20047;-63
2022/03/23 03:31:12;;;;;;;22.77;10.68;;;;;;;-0.03;100.00;101063.72;5151322;27;20529;-63
2022/03/23 03:33:39;;;;;;;19.92;10.05;;;;;;;-0.03;100.00;101065.59;5151354;27;20513;-64
2022/03/23 03:36:06;;;;;;;20.27;8.82;;;;;;;-0.01;100.00;101063.44;5151053;27;20451;-63
2022/03/23 03:38:34;;;;;;;18.98;8.88;;;;;;;-0.03;100.00;101069.09;5151246;27;20055;-64
2022/03/23 03:41:01;;;;;;;21.52;9.45;;;;;;;0.01;100.00;101079.41;5151044;27;20057;-64
2022/03/23 03:43:28;;;;;;;22.52;9.02;;;;;;;-0.03;100.00;101063.72;5151288;27;20043;-64
2022/03/23 03:45:54;;;;;;;21.85;9.23;;;;;;;-0.08;100.00;101068.22;5151150;27;20046;-64
2022/03/23 03:48:22;;;;;;;26.17;10.80;;;;;;;-0.13;100.00;101074.34;5150947;27;20042;-64
2022/03/23 03:50:48;;;;;;;24.33;9.48;;;;;;;-0.19;100.00;101069.13;5151012;27;20042;-64
2022/03/23 03:53:15;;;;;;;26.58;9.13;;;;;;;-0.24;100.00;101065.28;5150636;27;20099;-64
2022/03/23 03:55:41;;;;;;;17.08;9.07;;;;;;;-0.21;100.00;101068.56;5151224;27;20051;-63
2022/03/23 03:58:09;;;;;;;23.75;10.35;;;;;;;-0.23;100.00;101063.41;5151107;27;20199;-64
2022/03/23 04:00:36;;;;;;;27.80;9.75;;;;;;;-0.19;100.00;101067.25;5150464;27;20051;-63
2022/03/23 04:03:03;;;;;;;23.02;10.15;;;;;;;-0.17;100.00;101058.91;5150635;27;20050;-64
2022/03/23 04:05:30;;;;;;;24.45;9.10;;;;;;;-0.16;100.00;101055.97;5150972;27;20089;-64
2022/03/23 04:07:57;;;;;;;20.27;9.05;;;;;;;-0.13;100.00;101054.66;5150648;27;20150;-64
2022/03/23 04:10:23;;;;;;;26.45;9.27;;;;;;;-0.17;100.00;101057.00;5150856;27;20133;-64
2022/03/23 04:12:49;;;;;;;25.10;11.15;;;;;;;-0.10;100.00;101055.00;5150875;27;20450;-64
2022/03/23 04:15:16;;;;;;;22.95;9.60;;;;;;;-0.10;100.00;101051.44;5150802;27;20046;-64
2022/03/23 04:17:42;;;;;;;29.90;10.18;;;;;;;-0.08;100.00;101052.03;5150958;27;20371;-64
2022/03/23 04:20:10;;;;;;;22.10;9.73;;;;;;;-0.04;100.00;101053.97;5150791;27;20490;-64
2022/03/23 04:22:38;;;;;;;21.23;10.43;;;;;;;-0.04;100.00;101048.56;5150762;27;20059;-64
2022/03/23 04:25:05;;;;;;;30.75;11.02;;;;;;;-0.01;100.00;101049.97;5151844;27;20050;-64
2022/03/23 04:27:32;;;;;;;26.45;10.18;;;;;;;0.00;100.00;101051.63;5153955;27;20043;-64
2022/03/23 04:29:58;;;;;;;30.50;10.98;;;;;;;0.02;100.00;101048.66;5154254;27;20046;-65
2022/03/23 04:32:25;;;;;;;20.58;9.55;;;;;;;0.04;100.00;101044.66;5154368;27;20091;-65
2022/03/23 04:34:51;;;;;;;24.40;9.70;;;;;;;0.08;100.00;101053.88;5154090;27;20051;-65
2022/03/23 04:37:17;;;;;;;22.85;9.88;;;;;;;0.15;100.00;101051.00;5154012;27;20501;-65
2022/03/23 04:39:44;;;;;;;24.48;9.95;;;;;;;0.17;100.00;101048.88;5154052;27;20077;-64
2022/03/23 04:42:10;;;;;;;22.92;9.98;;;;;;;0.27;100.00;101053.56;5153718;27;20088;-64
2022/03/23 04:44:37;;;;;;;23.05;9.88;;;;;;;0.50;100.00;101047.13;5153588;27;20550;-64
2022/03/23 04:47:04;;;;;;;23.58;10.35;;;;;;;0.70;100.00;101050.06;5153505;27;20494;-64
2022/03/23 04:49:30;;;;;;;21.15;9.32;;;;;;;1.61;100.00;101042.00;5153519;27;20076;-64
2022/03/23 04:51:56;;;;;;;23.30;10.13;;;;;;;2.95;100.00;101036.13;5153549;27;20054;-64
2022/03/23 04:54:23;;;;;;;22.15;8.85;;;;;;;4.03;100.00;100965.50;5153837;27;20089;-64
2022/03/23 04:56:50;;;;;;;21.42;9.13;;;;;;;4.94;100.00;100719.63;5153412;27;20550;-64
2022/03/23 04:59:16;;;;;;;17.83;8.90;;;;;;;5.65;100.00;100285.31;5153801;27;20050;-63
2022/03/23 05:01:42;;;;;;;20.00;9.32;;;;;;;6.30;100.00;99906.44;5153291;27;20081;-63
2022/03/23 05:04:09;;;;;;;20.70;9.45;;;;;;;6.87;100.00;99735.72;5153498;27;20046;-63
2022/03/23 05:06:35;;;;;;;17.65;9.43;;;;;;;7.23;100.00;99686.97;5149272;27;20047;-63
2022/03/23 05:09:01;;;;;;;23.63;9.85;;;;;;;7.76;100.00;99681.94;5150042;27;20150;-62
2022/03/23 05:11:28;;;;;;;20.92;9.13;;;;;;;8.15;100.00;99710.66;5145766;27;20103;-62
2022/03/23 05:13:55;;;;;;;23.65;9.32;;;;;;;8.63;100.00;99730.31;5145712;27;20092;-62
2022/03/23 05:16:21;;;;;;;19.30;10.05;;;;;;;9.03;100.00;99768.00;5152350;27;20057;-62
2022/03/23 05:18:47;;;;;;;21.83;9.57;;;;;;;9.46;100.00;99800.28;5152816;27;20098;-63
2022/03/23 05:21:14;;;;;;;22.08;10.50;;;;;;;9.81;100.00;99828.03;5152987;27;20082;-62
2022/03/23 05:23:40;;;;;;;42.03;17.83;;;;;;;10.07;100.00;99846.03;5136263;27;20058;-62
2022/03/23 05:26:06;;;;;;;65.45;22.92;;;;;;;10.28;100.00;99870.56;5132052;27;20051;-67
2022/03/23 05:28:33;;;;;;;90.40;35.60;;;;;;;10.47;100.00;99886.41;5131786;27;20055;-63
2022/03/23 05:31:00;;;;;;;121.05;47.08;;;;;;;10.87;100.00;99900.13;5132632;27;20054;-65
2022/03/23 05:33:26;;;;;;;97.88;39.15;;;;;;;11.03;100.00;99925.66;5146158;27;20086;-62
2022/03/23 05:35:52;;;;;;;146.75;54.47;;;;;;;11.38;100.00;99929.72;5152757;27;20050;-63
2022/03/23 05:38:18;;;;;;;86.72;34.63;;;;;;;11.54;100.00;99939.56;5152890;27;20086;-64
2022/03/23 05:40:45;;;;;;;63.78;26.40;;;;;;;11.85;100.00;99950.97;5150819;27;20047;-73
2022/03/23 05:43:11;;;;;;;59.35;26.50;;;;;;;12.11;100.00;99961.44;5132183;27;20047;-73
2022/03/23 05:45:37;;;;;;;62.10;26.27;;;;;;;12.44;100.00;99974.78;5132101;27;20047;-64
2022/03/23 05:48:05;;;;;;;62.10;28.48;;;;;;;12.46;100.00;99986.22;5132118;27;20047;-63
2022/03/23 05:50:33;;;;;;;61.13;25.38;;;;;;;12.90;100.00;99989.59;5142864;27;20062;-66
2022/03/23 05:52:59;;;;;;;51.97;23.20;;;;;;;13.08;100.00;100009.22;5152956;27;20051;-63
2022/03/23 05:55:26;;;;;;;54.80;21.77;;;;;;;13.29;100.00;100000.63;5152891;27;20046;-64
2022/03/23 05:57:52;;;;;;;40.08;18.95;;;;;;;13.42;100.00;100013.09;5152548;27;20501;-62
2022/03/23 06:00:19;;;;;;;46.88;19.90;;;;;;;13.70;100.00;99998.28;5142837;27;20062;-63
2022/03/23 06:02:46;;;;;;;35.67;16.92;;;;;;;14.02;100.00;100028.38;5134487;27;20130;-63
2022/03/23 06:05:13;;;;;;;48.05;21.85;;;;;;;14.31;100.00;100022.19;5132262;27;20054;-63
2022/03/23 06:07:39;;;;;;;39.92;17.45;;;;;;;14.65;100.00;100040.88;5132095;27;20116;-63
2022/03/23 06:10:07;;;;;;;36.10;18.55;;;;;;;14.79;100.00;100052.94;5131653;28;20471;-64
2022/03/23 06:12:33;;;;;;;48.20;21.25;;;;;;;15.11;100.00;100043.50;5143224;27;20051;-64
2022/03/23 06:15:00;;;;;;;51.03;22.35;;;;;;;15.27;100.00;100053.19;5151361;27;20098;-65
2022/03/23 06:17:27;;;;;;;49.20;20.13;;;;;;;15.60;100.00;100037.81;5151706;27;20050;-67
2022/03/23 06:19:53;;;;;;;35.78;16.20;;;;;;;15.80;100.00;100057.81;5150105;27;20047;-67
2022/03/23 06:22:20;;;;;;;29.98;14.90;;;;;;;16.21;100.00;100060.59;5152294;27;20080;-66
2022/03/23 06:24:46;;;;;;;25.95;14.38;;;;;;;16.29;100.00;100065.00;5136546;27;20175;-66
2022/03/23 06:27:12;;;;;;;27.05;13.13;;;;;;;16.34;100.00;100078.50;5131635;28;20050;-67
2022/03/23 06:29:39;;;;;;;30.77;12.30;;;;;;;16.71;100.00;100061.00;5136855;27;20439;-66
2022/03/23 06:32:05;;;;;;;29.23;11.25;;;;;;;16.83;100.00;100074.56;5136522;27;20052;-67
2022/03/23 06:34:32;;;;;;;23.73;10.65;;;;;;;17.01;100.00;100074.69;5137499;27;20051;-66
2022/03/23 06:36:58;;;;;;;31.15;14.05;;;;;;;17.31;97.21;100087.53;5150268;27;20051;-65
2022/03/23 06:39:25;;;;;;;37.90;11.45;;;;;;;17.22;95.45;100096.19;5131306;27;20095;-68
2022/03/23 06:41:51;;;;;;;39.40;11.77;;;;;;;17.60;95.41;100091.22;5132428;27;20470;-68
2022/03/23 06:44:17;;;;;;;30.48;10.98;;;;;;;17.84;90.96;100109.97;5135361;27;20058;-64
2022/03/23 06:46:44;;;;;;;34.30;12.50;;;;;;;17.95;90.53;100109.19;5147655;27;20051;-65
2022/03/23 06:49:10;;;;;;;31.10;14.43;;;;;;;18.26;91.96;100099.34;5131798;27;20051;-66
2022/03/23 06:51:36;;;;;;;39.50;13.52;;;;;;;18.43;90.57;100101.38;5145933;27;20142;-67
2022/03/23 06:54:02;;;;;;;47.47;23.17;;;;;;;18.43;88.20;100111.69;5149697;27;20042;-67
2022/03/23 06:56:29;;;;;;;43.17;17.42;;;;;;;18.72;88.78;100104.97;5132132;27;20138;-69
2022/03/23 06:58:56;;;;;;;38.58;14.82;;;;;;;18.87;84.26;100127.19;5139033;27;20063;-65
2022/03/23 07:01:22;;;;;;;43.60;12.13;;;;;;;19.09;83.14;100133.53;5132165;27;20053;-68
2022/03/23 07:03:49;;;;;;;32.40;12.35;;;;;;;19.33;82.29;100129.13;5130895;27;20047;-65
2022/03/23 07:06:16;;;;;;;37.40;12.50;;;;;;;19.39;80.68;100128.31;5131069;27;20186;-63
2022/03/23 07:11:27;;;;;;;24.73;10.35;;;;;;;19.63;80.71;100123.91;5149367;27;20045;-65
2022/03/23 07:13:54;;;;;;;27.48;9.88;;;;;;;19.86;78.91;100131.75;5134980;27;20064;-62
2022/03/23 07:16:20;;;;;;;30.02;10.05;;;;;;;20.14;78.50;100128.00;5149539;27;20426;-61
2022/03/23 07:18:47;;;;;;;28.30;9.60;;;;;;;20.28;75.86;100132.72;5150639;27;20050;-64
2022/03/23 07:21:13;;;;;;;16.75;7.35;;;;;;;20.41;73.34;100144.94;5144662;27;20578;-61
2022/03/23 07:23:39;;;;;;;13.88;6.10;;;;;;;20.63;72.29;100142.84;5134760;27;20047;-69
2022/03/23 07:26:06;;;;;;;10.77;5.07;;;;;;;20.80;71.19;100141.13;5149270;27;20083;-67
2022/03/23 07:28:33;;;;;;;10.40;4.90;;;;;;;21.02;68.63;100150.06;5134631;27;20050;-68
2022/03/23 07:31:00;;;;;;;11.75;5.10;;;;;;;21.16;67.88;100154.75;5146245;27;20051;-63
2022/03/23 07:33:27;;;;;;;22.40;6.40;;;;;;;21.32;67.64;100151.38;5137501;27;20055;-67
2022/03/23 07:35:53;;;;;;;8.80;4.53;;;;;;;21.40;66.48;100152.94;5145110;27;20047;-66
2022/03/23 07:38:19;;;;;;;6.93;3.95;;;;;;;21.37;66.48;100148.19;5148603;27;20433;-65
2022/03/23 07:40:46;;;;;;;8.27;3.90;;;;;;;21.31;65.16;100142.22;5136928;27;20184;-62
2022/03/23 07:43:12;;;;;;;11.65;4.47;;;;;;;21.43;66.52;100140.97;5140910;27;20091;-65
2022/03/23 07:45:38;;;;;;;9.20;4.70;;;;;;;21.66;65.26;100137.50;5147754;27;20047;-65
2022/03/23 07:48:06;;;;;;;6.28;3.88;;;;;;;21.77;64.85;100132.59;5142161;27;20057;-62
2022/03/23 07:50:32;;;;;;;7.78;4.22;;;;;;;21.73;64.11;100139.44;5145728;27;20046;-62
2022/03/23 07:52:58;;;;;;;6.05;3.85;;;;;;;21.76;64.91;100133.78;5151104;27;20056;-62
2022/03/23 07:55:25;;;;;;;10.25;4.25;;;;;;;21.86;63.39;100137.66;5150881;27;20050;-62
2022/03/23 07:57:51;;;;;;;16.70;4.50;;;;;;;21.95;64.19;100131.56;5143934;27;20071;-64
2022/03/23 08:00:18;;;;;;;13.55;5.20;;;;;;;22.13;64.29;100122.94;5148131;27;20069;-64
2022/03/23 08:02:44;;;;;;;9.50;4.60;;;;;;;22.03;64.87;100117.09;5133744;28;20422;-68
2022/03/23 08:05:11;;;;;;;9.55;4.70;;;;;;;21.82;64.46;100123.72;5133720;28;20053;-67
2022/03/23 08:07:38;;;;;;;9.05;4.95;;;;;;;21.69;64.72;100122.69;5140920;27;20043;-65
2022/03/23 08:10:05;;;;;;;9.30;5.55;;;;;;;21.90;64.64;100127.25;5154403;27;20066;-66
2022/03/23 08:12:31;;;;;;;10.57;7.03;;;;;;;21.87;64.24;100122.50;5149996;27;20200;-64
2022/03/23 08:14:57;;;;;;;14.63;6.63;;;;;;;21.46;65.19;100119.78;5154519;27;20394;-69
2022/03/23 08:17:24;;;;;;;16.15;7.70;;;;;;;21.35;67.01;100105.97;5148352;27;20047;-66
2022/03/23 08:20:32;;;;;;;18.00;8.73;;;;;;;21.28;68.04;100106.00;5135340;27;20119;-64
2022/03/23 08:22:38;;;;;;;14.95;7.50;;;;;;;21.53;68.65;100098.19;5137430;27;20413;-63
2022/03/23 08:25:05;;;;;;;19.27;8.65;;;;;;;21.71;69.16;100084.00;5153663;27;20137;-66
2022/03/23 08:27:32;;;;;;;11.80;8.50;;;;;;;21.91;69.88;100084.16;5153625;27;20399;-63
2022/03/23 08:29:59;;;;;;;17.00;8.00;;;;;;;21.89;69.25;100080.97;5153330;27;20051;-62
2022/03/23 08:32:26;;;;;;;12.90;7.80;;;;;;;21.83;69.85;100077.09;5153724;27;20055;-63
2022/03/23 08:34:52;;;;;;;15.50;8.40;;;;;;;21.69;70.15;100077.25;5153691;27;20047;-63
2022/03/23 08:37:18;;;;;;;19.10;8.13;;;;;;;21.71;70.33;100064.47;5153857;27;20509;-63
2022/03/23 08:39:45;;;;;;;15.77;8.52;;;;;;;21.85;71.03;100063.50;5153541;27;20124;-63
2022/03/23 08:42:12;;;;;;;12.88;8.40;;;;;;;21.96;70.92;100064.16;5153534;27;20043;-64
2022/03/23 08:44:40;;;;;;;15.13;8.65;;;;;;;22.26;69.89;100062.53;5153525;27;20050;-63
2022/03/23 08:47:06;;;;;;;16.10;8.68;;;;;;;22.32;69.84;100060.81;5153632;27;20047;-64
2022/03/23 08:49:33;;;;;;;10.38;8.02;;;;;;;22.35;69.99;100056.41;5150097;27;20403;-63
2022/03/23 08:51:59;;;;;;;17.52;9.20;;;;;;;22.31;70.02;100057.25;5142237;27;20053;-62
2022/03/23 08:54:25;;;;;;;15.73;8.93;;;;;;;22.09;71.28;100042.00;5132740;28;20111;-63
2022/03/23 08:56:52;;;;;;;21.45;9.52;;;;;;;22.03;71.22;100044.50;5132761;28;20047;-63
2022/03/23 08:59:18;;;;;;;14.77;10.05;;;;;;;22.05;70.89;100050.44;5132617;28;20150;-62
2022/03/23 09:01:44;;;;;;;13.88;9.27;;;;;;;22.02;71.22;100045.69;5132131;28;20479;-63
2022/03/23 09:04:11;;;;;;;21.80;10.13;;;;;;;21.92;70.53;100040.25;5132714;27;20058;-63
2022/03/23 09:06:37;;;;;;;20.15;9.77;;;;;;;21.89;70.42;100043.91;5132217;27;20051;-62
2022/03/23 09:09:03;;;;;;;17.15;10.02;;;;;;;21.95;70.60;100042.22;5132340;28;20087;-62
2022/03/23 09:11:29;;;;;;;30.98;15.13;;;;;;;21.96;69.98;100030.66;5143702;27;20056;-62
2022/03/23 09:13:57;;;;;;;16.25;9.45;;;;;;;22.00;70.83;100031.38;5153192;27;20054;-63
2022/03/23 09:16:23;;;;;;;18.77;9.23;;;;;;;21.88;71.28;100028.38;5153362;27;20042;-63
2022/03/23 09:18:50;;;;;;;12.57;7.68;;;;;;;21.89;70.83;100019.56;5153149;27;20142;-62
2022/03/23 09:21:17;;;;;;;12.23;7.55;;;;;;;21.76;70.85;100015.75;5152520;27;20047;-63
2022/03/23 09:23:43;;;;;;;20.05;10.55;;;;;;;21.56;71.36;100015.66;5132221;28;20108;-63
2022/03/23 09:26:11;;;;;;;20.48;8.00;;;;;;;21.57;71.62;100006.06;5132108;28;20058;-63
2022/03/23 09:28:38;;;;;;;15.32;8.68;;;;;;;21.31;72.58;100010.38;5132187;27;20047;-63
2022/03/23 09:31:06;;;;;;;11.50;8.50;;;;;;;21.33;74.47;99996.81;5132402;28;20122;-63
2022/03/23 09:33:33;;;;;;;17.08;8.88;;;;;;;21.23;73.84;99989.38;5151049;27;20058;-63
2022/03/23 09:35:59;;;;;;;19.30;8.57;;;;;;;21.27;73.30;99984.53;5150867;27;20043;-63
2022/03/23 09:38:26;;;;;;;14.63;8.60;;;;;;;21.14;72.88;99987.06;5152546;27;20058;-63
2022/03/23 09:40:53;;;;;;;24.80;8.70;;;;;;;21.12;73.96;99979.09;5152897;27;20543;-63
2022/03/23 09:43:22;;;;;;;11.27;7.38;;;;;;;21.14;73.80;99976.72;5136075;27;20123;-64
2022/03/23 09:45:50;;;;;;;16.90;9.00;;;;;;;21.21;72.72;99980.63;5130123;28;20104;-64
2022/03/23 09:48:20;;;;;;;10.85;7.65;;;;;;;21.07;73.89;99971.22;5132091;28;20106;-64
2022/03/23 09:50:50;;;;;;;13.25;7.53;;;;;;;21.04;75.94;99954.53;5131984;27;20093;-64
2022/03/23 09:53:17;;;;;;;12.23;8.32;;;;;;;21.12;74.03;99951.22;5147548;27;20070;-63
2022/03/23 09:55:44;;;;;;;17.58;8.77;;;;;;;21.05;75.24;99956.91;5152453;27;20046;-63
2022/03/23 09:58:11;;;;;;;22.17;9.02;;;;;;;21.06;74.49;99943.75;5152742;27;20107;-63
2022/03/23 10:00:38;;;;;;;25.67;9.32;;;;;;;21.21;73.36;99953.53;5146447;27;20082;-63
2022/03/23 10:03:37;;;;;;;22.05;9.30;;;;;;;21.21;72.75;99952.72;5149851;27;20243;-63
2022/03/23 10:06:39;;;;;;;14.15;8.13;;;;;;;20.97;74.59;99938.69;5152397;27;20047;-63
2022/03/23 10:09:41;;;;;;;14.52;8.82;;;;;;;20.94;75.56;99936.72;5132987;27;20133;-64
2022/03/23 10:12:44;;;;;;;11.15;8.57;;;;;;;20.84;74.57;99932.88;5138606;27;20053;-62
2022/03/23 10:15:59;;;;;;;12.68;8.90;;;;;;;20.54;74.99;99928.03;5152275;27;20427;-62
2022/03/23 10:18:50;;;;;;;17.05;9.30;;;;;;;20.27;74.95;99915.94;5151213;27;20057;-68
2022/03/23 10:21:17;;;;;;;21.85;11.23;;;;;;;20.19;77.26;99913.25;5149027;27;20046;-72
2022/03/23 10:24:05;;;;;;;18.45;10.00;;;;;;;20.24;76.98;99894.50;5150903;27;20421;-64
2022/03/23 10:26:33;;;;;;;13.20;9.77;;;;;;;20.17;75.65;99898.94;5150805;27;20083;-64
2022/03/23 10:29:01;;;;;;;17.10;9.55;;;;;;;20.01;76.98;99895.09;5138569;27;20049;-63
2022/03/23 10:31:28;;;;;;;12.25;9.25;;;;;;;19.98;77.79;99885.59;5134802;27;20058;-63
2022/03/23 10:33:57;;;;;;;12.63;9.23;;;;;;;19.98;77.07;99880.00;5131168;27;20058;-62
2022/03/23 10:36:26;;;;;;;14.88;9.75;;;;;;;19.87;76.65;99879.34;5131126;28;20070;-62
2022/03/23 10:38:59;;;;;;;15.27;9.88;;;;;;;19.80;77.48;99876.63;5131426;28;20051;-67
2022/03/23 10:41:27;;;;;;;17.63;9.43;;;;;;;19.82;78.09;99860.28;5132664;27;20055;-68
2022/03/23 10:43:53;;;;;;;15.57;10.90;;;;;;;19.85;76.48;99873.38;5131231;28;20062;-67
2022/03/23 10:46:21;;;;;;;15.63;10.30;;;;;;;19.99;77.51;99864.88;5130394;28;20498;-69
2022/03/23 10:48:51;;;;;;;14.88;10.52;;;;;;;19.85;75.95;99870.59;5130322;28;20054;-69
2022/03/23 10:51:26;;;;;;;13.02;9.85;;;;;;;19.71;77.94;99850.03;5140045;27;20055;-63
2022/03/23 10:53:52;;;;;;;15.18;11.38;;;;;;;19.64;74.34;99855.66;5150730;27;20061;-72
2022/03/23 10:59:25;;;;;;;18.33;11.50;;;;;;;19.90;74.41;99859.03;5150070;27;20045;-72
2022/03/23 11:02:03;;;;;;;17.27;11.05;;;;;;;19.81;75.90;99839.22;5136524;27;20051;-72
2022/03/23 11:04:31;;;;;;;18.25;10.70;;;;;;;19.78;76.04;99842.84;5130907;27;20047;-72
2022/03/23 11:06:59;;;;;;;15.65;11.23;;;;;;;19.77;74.80;99832.91;5130446;28;20391;-68
2022/03/23 11:18:06;;;;;;;17.92;10.77;;;;;;;19.47;78.92;99812.06;5130774;27;20066;-65
2022/03/23 11:20:40;;;;;;;14.43;10.20;;;;;;;19.49;78.68;99807.69;5132288;27;20043;-65
2022/03/23 11:23:20;;;;;;;16.60;11.40;;;;;;;19.12;76.83;99808.34;5151333;27;20043;-72
2022/03/23 11:25:48;;;;;;;15.82;11.15;;;;;;;18.48;78.86;99800.31;5151283;27;20054;-70
2022/03/23 11:28:15;;;;;;;17.08;10.90;;;;;;;17.91;80.33;99792.97;5151312;27;20107;-69
2022/03/23 11:30:42;;;;;;;16.13;10.48;;;;;;;17.53;83.88;99777.94;5147572;27;20073;-70
2022/03/23 11:33:10;;;;;;;14.70;9.18;;;;;;;17.36;83.34;99769.22;5130424;27;20100;-71
2022/03/23 11:35:40;;;;;;;17.52;9.20;;;;;;;17.23;87.94;99756.16;5134061;28;20414;-67
2022/03/23 11:38:11;;;;;;;18.80;9.30;;;;;;;17.08;88.54;99747.84;5134225;28;20448;-71
2022/03/23 11:40:39;;;;;;;15.43;8.70;;;;;;;16.87;85.57;99745.84;5135750;27;20051;-65
2022/03/23 11:43:06;;;;;;;17.85;9.32;;;;;;;16.70;92.69;99718.88;5154433;27;20046;-66